Time;durP1;ratioP1;P1;durP2;ratioP2;P2;SDS_P1;SDS_P2;PMS_P1;PMS_P2;Temp;Humidity;BMP_temperature;BMP_pressure;BME280_temperature;BME280_humidity;BME280_pressure;Samples;Min_cycle;Max_cycle;Signal;HPM_P1;HPM_P2
2022/11/05 00:09:30;;;;;;;13.77;5.80;;;6.50;99.90;;;;;;4963293;28;20047;-77
2022/11/05 00:17:30;;;;;;;11.50;5.95;;;6.40;99.90;;;;;;4972900;28;20483;-78
2022/11/05 00:19:56;;;;;;;17.15;7.43;;;6.40;99.90;;;;;;4972764;28;20046;-78
2022/11/05 00:25:15;;;;;;;14.18;7.30;;;6.50;99.90;;;;;;4973345;28;20047;-78
2022/11/05 00:27:50;;;;;;;16.35;7.97;;;6.50;99.90;;;;;;4973336;28;20051;-78
2022/11/05 00:30:21;;;;;;;14.38;7.50;;;6.40;99.90;;;;;;4972709;28;20034;-77
2022/11/05 00:32:48;;;;;;;13.55;6.95;;;6.40;99.90;;;;;;4973001;28;20089;-77
2022/11/05 00:35:15;;;;;;;13.60;7.25;;;6.30;99.90;;;;;;4972764;28;20054;-77
2022/11/05 00:37:41;;;;;;;12.63;6.53;;;6.30;99.90;;;;;;4973265;28;20351;-78
2022/11/05 00:40:08;;;;;;;14.43;5.85;;;6.30;99.90;;;;;;4958166;28;20053;-78
2022/11/05 00:45:18;;;;;;;12.60;6.03;;;6.30;99.90;;;;;;4971729;28;20386;-77
2022/11/05 00:50:28;;;;;;;10.07;5.60;;;6.30;99.90;;;;;;4991495;28;20455;-77
2022/11/05 00:52:56;;;;;;;14.95;6.40;;;6.30;99.90;;;;;;4965352;28;20129;-78
2022/11/05 00:55:22;;;;;;;12.77;5.85;;;6.30;99.90;;;;;;4978753;28;20390;-78
2022/11/05 00:57:48;;;;;;;14.05;5.93;;;6.40;99.90;;;;;;4979363;28;20051;-78
2022/11/05 01:00:14;;;;;;;13.73;6.10;;;6.40;99.90;;;;;;4976851;28;20109;-78
2022/11/05 01:02:40;;;;;;;12.73;6.47;;;6.40;99.90;;;;;;4978930;28;20038;-77
2022/11/05 01:05:06;;;;;;;12.10;6.00;;;6.40;99.90;;;;;;4983488;28;20093;-78
2022/11/05 01:07:32;;;;;;;12.93;6.45;;;6.40;99.90;;;;;;4957345;28;20160;-78
2022/11/05 01:09:57;;;;;;;12.43;6.38;;;6.40;99.90;;;;;;4979366;28;20125;-78
2022/11/05 01:12:23;;;;;;;14.10;7.07;;;6.50;99.90;;;;;;4962362;28;20058;-78
2022/11/05 01:14:49;;;;;;;13.15;6.05;;;6.40;99.90;;;;;;4976144;28;20052;-78
2022/11/05 01:17:15;;;;;;;14.48;5.88;;;6.40;99.90;;;;;;4960045;28;20046;-78
2022/11/05 01:19:41;;;;;;;12.25;6.60;;;6.40;99.90;;;;;;4975380;28;20382;-78
2022/11/05 01:22:07;;;;;;;12.80;6.00;;;6.30;99.90;;;;;;4976480;28;20053;-78
2022/11/05 01:24:32;;;;;;;12.15;5.43;;;6.30;99.90;;;;;;4943888;28;20070;-78
2022/11/05 01:26:58;;;;;;;11.45;5.65;;;6.30;99.90;;;;;;4960256;28;20047;-78
2022/11/05 01:29:24;;;;;;;12.20;5.32;;;7.10;99.90;;;;;;4976112;28;20068;-78
2022/11/05 01:31:50;;;;;;;13.38;5.93;;;6.80;99.90;;;;;;4977223;28;20082;-78
2022/11/05 01:34:15;;;;;;;14.18;5.93;;;6.30;99.90;;;;;;4975790;28;20053;-78
2022/11/05 01:36:41;;;;;;;11.98;5.47;;;6.30;99.90;;;;;;4977218;28;20109;-78
2022/11/05 01:39:07;;;;;;;10.82;5.30;;;6.30;99.90;;;;;;4975194;28;20130;-78
2022/11/05 01:41:32;;;;;;;12.90;5.38;;;6.30;99.90;;;;;;4959773;28;20042;-78
2022/11/05 01:43:58;;;;;;;11.52;5.47;;;6.30;99.90;;;;;;4985116;28;20042;-78
2022/11/05 01:46:39;;;;;;;10.85;5.28;;;6.90;99.90;;;;;;4988260;28;20047;-78
2022/11/05 01:49:34;;;;;;;13.07;5.80;;;6.30;99.90;;;;;;4976427;28;20510;-78
2022/11/05 01:52:03;;;;;;;10.40;5.35;;;6.30;99.90;;;;;;4964168;28;20414;-78
2022/11/05 01:54:30;;;;;;;12.35;5.53;;;6.20;99.90;;;;;;4987036;28;20047;-78
2022/11/05 01:57:08;;;;;;;13.38;5.13;;;6.30;99.90;;;;;;4965280;28;20047;-78
2022/11/05 01:59:42;;;;;;;10.02;4.72;;;6.20;99.90;;;;;;4972887;28;20039;-78
2022/11/05 02:02:07;;;;;;;10.60;4.40;;;6.20;99.90;;;;;;4985660;28;20046;-78
2022/11/05 02:04:59;;;;;;;8.50;4.35;;;6.20;99.90;;;;;;4979703;28;20117;-78
2022/11/05 02:07:26;;;;;;;9.77;4.43;;;6.20;99.90;;;;;;4967783;28;20057;-78
2022/11/05 02:10:08;;;;;;;10.55;5.28;;;6.20;99.90;;;;;;4991408;28;20050;-78
2022/11/05 02:12:38;;;;;;;13.13;5.13;;;6.10;99.90;;;;;;4975599;28;20051;-78
2022/11/05 02:15:05;;;;;;;9.35;4.60;;;6.10;99.90;;;;;;4975603;28;20047;-79
2022/11/05 02:17:41;;;;;;;9.60;4.32;;;6.10;99.90;;;;;;4959234;28;20085;-79
2022/11/05 02:20:22;;;;;;;9.52;4.90;;;6.10;99.90;;;;;;4975523;28;20042;-79
2022/11/05 02:23:14;;;;;;;10.32;4.03;;;6.80;99.90;;;;;;4976951;28;20098;-78
2022/11/05 02:26:02;;;;;;;10.30;4.72;;;6.10;99.90;;;;;;4964821;28;20057;-79
2022/11/05 02:28:43;;;;;;;10.30;4.57;;;6.10;99.90;;;;;;4975836;28;20589;-79
2022/11/05 02:31:17;;;;;;;9.82;4.72;;;6.10;99.90;;;;;;4976322;28;20112;-79
2022/11/05 02:33:46;;;;;;;10.32;4.57;;;6.00;99.90;;;;;;4974070;28;20382;-79
2022/11/05 02:36:43;;;;;;;12.73;5.70;;;6.00;99.90;;;;;;4975200;28;20050;-78
2022/11/05 02:39:15;;;;;;;11.15;4.53;;;6.00;99.90;;;;;;4962815;28;20050;-79
2022/11/05 02:41:52;;;;;;;11.57;5.55;;;6.00;99.90;;;;;;4975173;28;20062;-78
2022/11/05 02:44:26;;;;;;;11.63;5.20;;;6.10;99.90;;;;;;4974960;28;20078;-79
2022/11/05 02:47:23;;;;;;;11.35;4.80;;;6.10;99.90;;;;;;4974945;28;20053;-77
2022/11/05 02:50:02;;;;;;;9.73;4.70;;;6.10;99.90;;;;;;4975196;28;20126;-79
2022/11/05 02:52:42;;;;;;;10.48;4.60;;;6.10;99.90;;;;;;4976893;28;20034;-78
2022/11/05 02:55:22;;;;;;;9.65;4.68;;;6.10;99.90;;;;;;4976026;28;20058;-79
2022/11/05 02:57:48;;;;;;;12.63;4.88;;;6.10;99.90;;;;;;4990737;28;20050;-79
2022/11/05 03:00:42;;;;;;;12.40;5.95;;;6.20;99.90;;;;;;4959948;28;20043;-79
2022/11/05 03:03:16;;;;;;;13.82;5.35;;;6.00;99.90;;;;;;4972322;28;20423;-79
2022/11/05 03:06:25;;;;;;;9.95;5.00;;;6.00;99.90;;;;;;4973723;28;20050;-79
2022/11/05 03:09:18;;;;;;;14.27;6.38;;;6.00;99.90;;;;;;4973267;28;20047;-79
2022/11/05 03:12:10;;;;;;;10.82;5.18;;;6.00;99.90;;;;;;4984277;28;20051;-79
2022/11/05 03:14:44;;;;;;;13.90;5.43;;;6.00;99.90;;;;;;4968036;28;20134;-79
2022/11/05 03:17:15;;;;;;;11.55;5.55;;;6.00;99.90;;;;;;4974053;28;20047;-79
2022/11/05 03:19:53;;;;;;;11.38;5.30;;;6.00;99.90;;;;;;4973701;28;20043;-79
2022/11/05 03:22:33;;;;;;;12.13;4.90;;;6.00;99.90;;;;;;4969036;28;20559;-78
2022/11/05 03:25:08;;;;;;;8.90;4.93;;;6.40;99.90;;;;;;4967147;28;20057;-79
2022/11/05 03:27:38;;;;;;;9.10;5.55;;;5.90;99.90;;;;;;4974144;28;20114;-79
2022/11/05 03:30:08;;;;;;;10.93;5.22;;;5.90;99.90;;;;;;4973802;28;20043;-79
2022/11/05 03:32:41;;;;;;;10.32;5.43;;;5.90;99.90;;;;;;4960003;28;20150;-79
2022/11/05 03:35:13;;;;;;;9.95;5.13;;;5.80;99.90;;;;;;4973379;28;20054;-79
2022/11/05 03:37:41;;;;;;;9.95;4.68;;;5.80;99.90;;;;;;4973980;28;20062;-79
2022/11/05 03:40:09;;;;;;;9.35;4.95;;;5.70;99.90;;;;;;4973819;28;20039;-80
2022/11/05 03:42:39;;;;;;;10.63;4.45;;;5.70;99.90;;;;;;4973519;28;20054;-80
2022/11/05 03:45:12;;;;;;;11.45;5.07;;;5.70;99.90;;;;;;4973917;28;20471;-80
2022/11/05 03:47:41;;;;;;;8.82;5.03;;;5.70;99.90;;;;;;4969375;28;20066;-79
2022/11/05 03:50:22;;;;;;;11.07;5.50;;;5.70;99.90;;;;;;4965276;28;20047;-80
2022/11/05 03:52:54;;;;;;;9.65;4.20;;;5.60;99.90;;;;;;4967545;28;20136;-79
2022/11/05 03:55:25;;;;;;;9.30;4.80;;;5.60;99.90;;;;;;4983016;28;20391;-79
2022/11/05 03:57:53;;;;;;;10.60;5.05;;;5.60;99.90;;;;;;4973532;28;20034;-79
2022/11/05 04:00:20;;;;;;;9.98;5.50;;;5.60;99.90;;;;;;4973164;28;20049;-80
2022/11/05 04:02:46;;;;;;;9.65;5.10;;;5.60;99.90;;;;;;4973636;28;20470;-79
2022/11/05 04:05:12;;;;;;;9.40;4.88;;;5.60;99.90;;;;;;4973093;28;20050;-80
2022/11/05 04:13:24;;;;;;;10.15;5.47;;;5.70;99.90;;;;;;4973329;28;20150;-79
2022/11/05 04:18:36;;;;;;;9.18;5.00;;;5.60;99.90;;;;;;4971187;28;20098;-80
2022/11/05 04:26:31;;;;;;;14.20;5.80;;;5.50;99.90;;;;;;4973559;28;20109;-80
2022/11/05 04:31:41;;;;;;;8.57;5.22;;;5.50;99.90;;;;;;4973039;28;20043;-80
2022/11/05 04:34:08;;;;;;;10.88;5.53;;;5.50;99.90;;;;;;4973555;28;20046;-80
2022/11/05 04:36:33;;;;;;;13.20;6.30;;;5.70;99.90;;;;;;4973236;28;20046;-80
2022/11/05 04:38:59;;;;;;;11.43;4.82;;;5.40;99.90;;;;;;4968518;28;20118;-80
2022/11/05 04:41:24;;;;;;;11.15;5.63;;;5.40;99.90;;;;;;4964094;28;20078;-80
2022/11/05 04:43:50;;;;;;;10.10;5.10;;;5.30;99.90;;;;;;4959663;28;20057;-80
2022/11/05 04:46:16;;;;;;;9.55;4.53;;;5.30;99.90;;;;;;4957103;28;20463;-80
2022/11/05 04:48:41;;;;;;;8.32;4.82;;;5.30;99.90;;;;;;4972409;28;20101;-80
2022/11/05 04:51:07;;;;;;;9.63;5.35;;;5.30;99.90;;;;;;4986334;28;20386;-80
2022/11/05 04:53:33;;;;;;;9.50;5.47;;;5.30;99.90;;;;;;4984768;28;20050;-80
2022/11/05 04:56:19;;;;;;;11.23;5.63;;;5.30;99.90;;;;;;4992261;28;20054;-80
2022/11/05 04:58:45;;;;;;;10.00;6.10;;;5.30;99.90;;;;;;4979844;28;20051;-80
2022/11/05 05:01:13;;;;;;;12.55;6.43;;;5.20;99.90;;;;;;4956586;28;20043;-80
2022/11/05 05:03:39;;;;;;;11.27;5.18;;;5.20;99.90;;;;;;4956114;28;20051;-80
2022/11/05 05:06:04;;;;;;;8.43;4.70;;;5.20;99.90;;;;;;4959951;28;20088;-81
2022/11/05 05:08:30;;;;;;;9.82;5.05;;;5.20;99.90;;;;;;4992502;28;20050;-81
2022/11/05 05:11:06;;;;;;;8.27;4.90;;;5.20;99.90;;;;;;4980682;28;20050;-80
2022/11/05 05:13:33;;;;;;;9.98;4.50;;;5.20;99.90;;;;;;4972866;28;20042;-80
2022/11/05 05:15:59;;;;;;;10.88;4.88;;;5.20;99.90;;;;;;4973107;28;20047;-79
2022/11/05 05:18:25;;;;;;;11.68;4.90;;;5.20;99.90;;;;;;4959085;28;20101;-80
2022/11/05 05:23:40;;;;;;;10.57;5.05;;;5.20;99.90;;;;;;4988922;28;20059;-80
2022/11/05 05:26:05;;;;;;;9.07;5.22;;;5.10;99.90;;;;;;4973875;28;20050;-80
2022/11/05 05:28:31;;;;;;;9.52;4.60;;;5.20;99.90;;;;;;4971289;28;20037;-81
2022/11/05 05:31:06;;;;;;;10.07;4.82;;;5.10;99.90;;;;;;4956783;28;20078;-80
2022/11/05 05:33:31;;;;;;;7.90;4.00;;;5.00;99.90;;;;;;4987115;28;20065;-81
2022/11/05 05:35:58;;;;;;;9.80;4.97;;;5.00;99.90;;;;;;4960072;28;20507;-81
2022/11/05 05:38:24;;;;;;;9.10;5.20;;;5.00;99.90;;;;;;4987879;28;20042;-81
2022/11/05 05:40:50;;;;;;;8.63;5.65;;;5.00;99.90;;;;;;4988035;28;20061;-81
2022/11/05 05:43:16;;;;;;;9.90;5.05;;;5.00;99.90;;;;;;4976109;28;20082;-80
2022/11/05 05:45:42;;;;;;;9.13;5.22;;;4.90;99.90;;;;;;4975690;28;20113;-81
2022/11/05 05:48:08;;;;;;;15.05;6.55;;;5.00;99.90;;;;;;4965447;28;20135;-80
2022/11/05 05:50:33;;;;;;;12.23;5.20;;;4.90;99.90;;;;;;4972697;28;20049;-80
2022/11/05 05:52:59;;;;;;;11.05;5.40;;;4.90;99.90;;;;;;4994955;28;20081;-80
2022/11/05 05:55:25;;;;;;;11.43;5.85;;;4.90;99.90;;;;;;4992261;28;20047;-81
2022/11/05 05:57:50;;;;;;;11.02;5.70;;;5.00;99.90;;;;;;5011109;28;20049;-80
2022/11/05 06:00:16;;;;;;;11.13;5.63;;;4.90;99.90;;;;;;4972605;28;20046;-81
2022/11/05 06:02:42;;;;;;;10.15;5.40;;;4.90;99.90;;;;;;4960546;28;20473;-79
2022/11/05 06:05:08;;;;;;;13.00;6.00;;;4.90;99.90;;;;;;4975085;28;20057;-81
2022/11/05 06:07:33;;;;;;;10.68;5.53;;;4.90;99.90;;;;;;4960957;28;20074;-81
2022/11/05 06:09:59;;;;;;;12.32;6.00;;;5.00;99.90;;;;;;4990554;28;20054;-80
2022/11/05 06:12:27;;;;;;;13.95;5.50;;;4.90;99.90;;;;;;4975643;28;20043;-80
2022/11/05 06:14:53;;;;;;;12.27;6.00;;;4.90;99.90;;;;;;4975458;28;20055;-80
2022/11/05 06:17:19;;;;;;;12.25;6.15;;;4.90;99.90;;;;;;4959734;28;20134;-80
2022/11/05 06:19:44;;;;;;;14.15;7.47;;;4.90;99.90;;;;;;4974816;28;20043;-79
2022/11/05 06:22:10;;;;;;;13.00;5.43;;;4.90;99.90;;;;;;4943055;28;20043;-80
2022/11/05 06:24:35;;;;;;;12.57;5.57;;;4.90;99.90;;;;;;4976407;28;20043;-78
2022/11/05 06:27:01;;;;;;;13.85;6.38;;;5.00;99.90;;;;;;4975374;28;20433;-77
2022/11/05 06:29:27;;;;;;;12.85;6.40;;;4.90;99.90;;;;;;4975307;28;20126;-78
2022/11/05 06:31:52;;;;;;;12.80;6.93;;;4.90;99.90;;;;;;4956504;28;20042;-78
2022/11/05 06:34:18;;;;;;;12.85;6.78;;;4.80;99.90;;;;;;4963218;28;20466;-77
2022/11/05 06:36:44;;;;;;;12.23;6.65;;;4.80;99.90;;;;;;4976425;28;20043;-80
2022/11/05 06:39:11;;;;;;;11.80;6.93;;;4.80;99.90;;;;;;4974450;28;20129;-81
2022/11/05 06:41:36;;;;;;;12.18;7.47;;;4.80;99.90;;;;;;4948524;28;20066;-81
2022/11/05 06:44:02;;;;;;;13.38;6.53;;;4.90;99.90;;;;;;4988512;28;20047;-80
2022/11/05 06:46:28;;;;;;;13.40;8.85;;;4.80;99.90;;;;;;4958884;28;20051;-81
2022/11/05 06:48:54;;;;;;;13.65;6.95;;;4.70;99.90;;;;;;4961478;28;20040;-79
2022/11/05 06:51:20;;;;;;;14.77;7.95;;;4.70;99.90;;;;;;4969866;28;20050;-78
2022/11/05 06:53:45;;;;;;;15.68;7.78;;;4.60;99.90;;;;;;4974971;28;20475;-79
2022/11/05 06:56:11;;;;;;;12.70;8.00;;;4.70;99.90;;;;;;4958382;28;20053;-79
2022/11/05 06:58:37;;;;;;;13.05;6.63;;;4.70;99.90;;;;;;4974744;28;20043;-79
2022/11/05 07:01:07;;;;;;;13.48;6.88;;;4.80;99.90;;;;;;4974482;28;20111;-79
2022/11/05 07:03:33;;;;;;;13.02;8.65;;;4.70;99.90;;;;;;4973843;28;20043;-78
2022/11/05 07:06:00;;;;;;;12.98;7.85;;;4.70;99.90;;;;;;4976855;28;20046;-78
2022/11/05 07:08:30;;;;;;;13.90;8.10;;;4.80;99.90;;;;;;4993880;28;20054;-79
2022/11/05 07:10:56;;;;;;;12.98;7.53;;;4.80;99.90;;;;;;4981863;28;20099;-78
2022/11/05 07:13:22;;;;;;;14.88;7.70;;;4.80;99.90;;;;;;4974320;28;20117;-78
2022/11/05 07:15:47;;;;;;;13.77;8.20;;;4.90;99.90;;;;;;4942742;28;20436;-79
2022/11/05 07:18:13;;;;;;;15.30;8.70;;;4.90;99.90;;;;;;4944867;28;20477;-77
2022/11/05 07:20:39;;;;;;;17.60;8.93;;;5.00;99.90;;;;;;4958756;28;20108;-78
2022/11/05 07:23:08;;;;;;;11.77;7.70;;;5.00;99.90;;;;;;4993645;28;20085;-78
2022/11/05 07:25:34;;;;;;;17.77;9.63;;;5.00;99.90;;;;;;4970455;28;20054;-78
2022/11/05 07:28:00;;;;;;;16.00;8.68;;;5.10;99.90;;;;;;4969398;28;20478;-77
2022/11/05 07:30:26;;;;;;;14.90;9.48;;;5.10;99.90;;;;;;4959927;28;20492;-77
2022/11/05 07:32:52;;;;;;;13.85;8.45;;;5.10;99.90;;;;;;4986180;28;20119;-77
2022/11/05 07:35:18;;;;;;;15.25;8.98;;;5.10;99.90;;;;;;4969842;28;20046;-78
2022/11/05 07:37:49;;;;;;;12.85;8.20;;;5.20;99.90;;;;;;4960600;28;20047;-78
2022/11/05 07:40:19;;;;;;;14.38;8.23;;;4.60;99.90;;;;;;4987351;28;20379;-78
2022/11/05 07:42:47;;;;;;;14.80;8.95;;;5.20;99.90;;;;;;4986003;28;20043;-78
2022/11/05 07:45:13;;;;;;;14.82;9.18;;;5.30;99.90;;;;;;4987439;28;20049;-78
2022/11/05 07:47:46;;;;;;;14.85;8.50;;;5.40;99.90;;;;;;4976599;28;20053;-78
2022/11/05 07:50:12;;;;;;;16.23;8.77;;;5.40;99.90;;;;;;4965726;28;20110;-77
2022/11/05 07:52:38;;;;;;;17.75;10.40;;;5.50;99.90;;;;;;4978442;28;20124;-78
2022/11/05 07:55:04;;;;;;;18.55;10.48;;;5.60;99.90;;;;;;4953662;28;20067;-78
2022/11/05 07:57:30;;;;;;;16.13;10.50;;;5.60;99.90;;;;;;4969086;28;20059;-76
2022/11/05 07:59:56;;;;;;;16.77;10.32;;;5.70;99.90;;;;;;4951152;28;20050;-78
2022/11/05 08:02:21;;;;;;;11.45;8.55;;;5.70;99.90;;;;;;4956633;28;20067;-77
2022/11/05 08:04:47;;;;;;;15.18;10.05;;;5.70;99.90;;;;;;4984041;28;20038;-78
2022/11/05 08:07:12;;;;;;;15.02;9.63;;;5.70;99.90;;;;;;4963947;28;20113;-77
2022/11/05 08:09:38;;;;;;;21.48;12.48;;;5.80;99.90;;;;;;4950785;28;20130;-77
2022/11/05 08:12:04;;;;;;;16.13;11.30;;;5.80;99.90;;;;;;4966232;28;20682;-77
2022/11/05 08:14:30;;;;;;;17.30;12.45;;;5.90;99.90;;;;;;4961815;28;20067;-77
2022/11/05 08:16:57;;;;;;;17.45;12.13;;;6.50;99.90;;;;;;4952296;28;20066;-77
2022/11/05 08:19:23;;;;;;;16.38;11.25;;;6.10;99.90;;;;;;4964658;28;20415;-76
2022/11/05 08:21:48;;;;;;;19.70;11.93;;;6.20;99.90;;;;;;4969280;28;20051;-76
2022/11/05 08:24:14;;;;;;;15.80;11.75;;;6.50;99.90;;;;;;4957998;28;20046;-76
2022/11/05 08:26:40;;;;;;;15.77;10.90;;;6.70;99.90;;;;;;4954980;28;20125;-76
2022/11/05 08:29:05;;;;;;;17.80;10.75;;;6.60;99.90;;;;;;4959875;28;20055;-75
2022/11/05 08:31:31;;;;;;;15.73;11.50;;;6.70;99.90;;;;;;4957470;28;20039;-76
2022/11/05 08:33:57;;;;;;;18.58;13.20;;;6.90;99.90;;;;;;4957008;28;20459;-76
2022/11/05 08:36:23;;;;;;;17.35;12.23;;;7.20;99.90;;;;;;4952630;28;20447;-75
2022/11/05 08:38:48;;;;;;;13.10;10.57;;;7.30;99.90;;;;;;4956328;28;20093;-75
2022/11/05 08:41:14;;;;;;;15.77;9.77;;;7.60;99.90;;;;;;4969654;28;20039;-74
2022/11/05 08:43:39;;;;;;;15.75;10.70;;;7.60;99.90;;;;;;4956494;28;20101;-74
2022/11/05 08:46:05;;;;;;;12.93;9.20;;;7.70;99.90;;;;;;4955415;28;20058;-74
2022/11/05 08:48:31;;;;;;;13.07;9.50;;;7.80;99.90;;;;;;4953208;28;20047;-73
2022/11/05 08:50:59;;;;;;;14.07;8.27;;;7.90;99.90;;;;;;4966589;28;20050;-73
2022/11/05 08:53:25;;;;;;;12.05;8.77;;;8.10;99.90;;;;;;4957431;28;20465;-73
2022/11/05 08:55:50;;;;;;;12.30;7.70;;;8.20;99.90;;;;;;4963606;28;20483;-73
2022/11/05 08:58:17;;;;;;;10.90;7.63;;;8.40;99.90;;;;;;4965946;28;20047;-72
2022/11/05 09:00:48;;;;;;;11.38;6.88;;;8.60;99.90;;;;;;4981395;28;20043;-72
2022/11/05 09:03:14;;;;;;;10.98;6.80;;;8.70;99.90;;;;;;4948444;28;20047;-72
2022/11/05 09:05:40;;;;;;;13.65;7.75;;;8.80;99.90;;;;;;4959333;28;20047;-72
2022/11/05 09:08:17;;;;;;;11.95;7.00;;;8.90;99.90;;;;;;4953600;28;20091;-73
2022/11/05 09:10:43;;;;;;;11.23;6.63;;;9.00;99.90;;;;;;4963778;28;20039;-73
2022/11/05 09:13:09;;;;;;;10.63;6.60;;;9.20;99.90;;;;;;4962348;28;20406;-72
2022/11/05 09:15:35;;;;;;;9.18;6.38;;;9.20;99.90;;;;;;4958248;28;20042;-72
2022/11/05 09:18:05;;;;;;;9.45;6.18;;;9.40;99.90;;;;;;4957455;28;20058;-72
2022/11/05 09:20:32;;;;;;;10.98;5.70;;;9.50;99.90;;;;;;4982479;28;20047;-72
2022/11/05 09:22:58;;;;;;;9.98;5.80;;;9.60;99.90;;;;;;4969555;28;20047;-73
2022/11/05 09:25:23;;;;;;;10.70;6.70;;;9.60;99.90;;;;;;4955727;28;20466;-71
2022/11/05 09:27:49;;;;;;;10.40;5.80;;;9.70;99.90;;;;;;4936844;28;20062;-73
2022/11/05 09:30:15;;;;;;;9.50;5.60;;;9.80;99.90;;;;;;4970377;28;20049;-72
2022/11/05 09:32:41;;;;;;;10.52;6.32;;;9.80;99.90;;;;;;4955469;28;20069;-72
2022/11/05 09:35:08;;;;;;;9.52;5.60;;;9.90;99.90;;;;;;4969239;28;20081;-73
2022/11/05 09:37:35;;;;;;;8.15;5.03;;;10.00;99.90;;;;;;4960143;28;20431;-73
2022/11/05 09:40:01;;;;;;;9.10;5.63;;;10.10;99.90;;;;;;4956856;28;20039;-72
2022/11/05 09:42:40;;;;;;;9.55;5.97;;;10.20;99.90;;;;;;4960133;28;20302;-72
2022/11/05 09:45:27;;;;;;;11.05;5.65;;;10.30;99.90;;;;;;4958616;28;20090;-73
2022/11/05 09:47:57;;;;;;;8.77;5.50;;;10.30;99.90;;;;;;4965140;28;20117;-73
2022/11/05 09:50:33;;;;;;;9.90;5.88;;;10.30;99.90;;;;;;4945019;28;20098;-73
2022/11/05 09:52:59;;;;;;;9.18;4.90;;;10.30;99.90;;;;;;4962906;28;20055;-73
2022/11/05 09:55:35;;;;;;;11.65;5.93;;;10.40;99.90;;;;;;4956688;28;20066;-73
2022/11/05 09:58:14;;;;;;;9.48;5.70;;;10.50;99.90;;;;;;4956079;28;20090;-73
2022/11/05 10:00:40;;;;;;;8.95;4.97;;;10.50;99.90;;;;;;4981260;28;21080;-73
2022/11/05 10:03:12;;;;;;;9.65;5.57;;;10.60;99.90;;;;;;4961012;28;20130;-74
2022/11/05 10:05:39;;;;;;;11.27;5.90;;;10.70;99.90;;;;;;4961712;28;20509;-73
2022/11/05 10:08:27;;;;;;;13.40;5.68;;;10.80;99.90;;;;;;4966411;28;20089;-73
2022/11/05 10:11:02;;;;;;;10.15;5.38;;;10.90;99.90;;;;;;4959542;28;20039;-73
2022/11/05 10:13:55;;;;;;;9.75;5.55;;;11.10;99.90;;;;;;4959478;28;20051;-73
2022/11/05 10:16:26;;;;;;;10.43;5.20;;;11.20;99.90;;;;;;4963462;28;20051;-73
2022/11/05 10:19:13;;;;;;;10.10;5.40;;;11.40;99.90;;;;;;4961563;28;20050;-74
2022/11/05 10:21:39;;;;;;;11.25;5.13;;;11.40;99.90;;;;;;4967364;28;20182;-74
2022/11/05 10:24:17;;;;;;;9.40;5.45;;;11.50;99.90;;;;;;4982838;28;20117;-74
2022/11/05 10:26:52;;;;;;;9.63;5.00;;;11.60;99.90;;;;;;4961292;28;20611;-73
2022/11/05 10:29:29;;;;;;;8.95;4.88;;;11.70;99.90;;;;;;4983026;28;20085;-74
2022/11/05 10:32:04;;;;;;;8.70;5.20;;;11.70;99.90;;;;;;4982086;28;20197;-75
2022/11/05 10:34:33;;;;;;;8.73;4.85;;;11.80;99.90;;;;;;4971365;28;20129;-74
2022/11/05 10:36:59;;;;;;;8.38;4.68;;;11.70;99.90;;;;;;4942451;28;20123;-74
2022/11/05 10:39:28;;;;;;;9.63;5.03;;;11.80;99.90;;;;;;4959497;28;20055;-74
2022/11/05 10:42:22;;;;;;;8.02;4.45;;;11.80;99.90;;;;;;4967147;28;20035;-74
2022/11/05 10:45:17;;;;;;;8.05;4.10;;;11.90;99.90;;;;;;4945258;28;20050;-74
2022/11/05 10:48:18;;;;;;;7.53;4.43;;;12.00;99.90;;;;;;4985434;28;20082;-74
2022/11/05 10:50:44;;;;;;;10.52;4.70;;;11.90;99.90;;;;;;4961663;28;20082;-74
2022/11/05 10:53:21;;;;;;;8.02;4.10;;;12.10;99.90;;;;;;4966929;28;20086;-74
2022/11/05 10:55:49;;;;;;;9.15;3.45;;;12.10;99.90;;;;;;4956562;28;20031;-73
2022/11/05 10:58:14;;;;;;;8.30;4.05;;;12.10;99.90;;;;;;4969869;28;21292;-74
2022/11/05 11:00:43;;;;;;;7.95;3.72;;;12.10;99.90;;;;;;4958177;28;20467;-73
2022/11/05 11:03:42;;;;;;;8.40;3.63;;;12.20;99.90;;;;;;4956726;28;20582;-73
2022/11/05 11:06:23;;;;;;;7.80;3.80;;;12.20;99.90;;;;;;4968054;28;20069;-74
2022/11/05 11:08:50;;;;;;;8.45;3.95;;;12.20;99.90;;;;;;4969959;28;20047;-74
2022/11/05 11:11:33;;;;;;;9.23;3.90;;;12.10;99.90;;;;;;4947704;28;20082;-74
2022/11/05 11:14:13;;;;;;;9.15;4.03;;;12.10;99.90;;;;;;4979205;28;20058;-74
2022/11/05 11:16:41;;;;;;;8.57;3.90;;;12.00;99.90;;;;;;4952991;28;20050;-73
2022/11/05 11:19:26;;;;;;;8.48;3.83;;;11.90;99.90;;;;;;4968526;28;20432;-74
2022/11/05 11:22:20;;;;;;;7.32;3.33;;;11.90;99.90;;;;;;4978310;28;20382;-74
2022/11/05 11:24:52;;;;;;;9.45;4.22;;;11.90;99.90;;;;;;4959666;28;20047;-73
2022/11/05 11:27:30;;;;;;;8.45;3.60;;;11.90;99.90;;;;;;4953781;28;20502;-73
2022/11/05 11:30:00;;;;;;;10.45;3.75;;;11.90;99.90;;;;;;4962510;28;20086;-73
2022/11/05 11:32:38;;;;;;;6.78;3.83;;;11.90;99.90;;;;;;4955347;28;20051;-73
2022/11/05 11:35:07;;;;;;;7.90;3.53;;;11.90;99.90;;;;;;4977726;28;20054;-74
2022/11/05 11:37:40;;;;;;;8.07;3.47;;;11.90;99.90;;;;;;4953616;28;20051;-74
2022/11/05 11:40:28;;;;;;;7.78;3.70;;;11.90;99.90;;;;;;4969126;28;20046;-73
2022/11/05 11:42:57;;;;;;;9.27;3.80;;;11.90;99.90;;;;;;4941618;28;20117;-74
2022/11/05 11:45:35;;;;;;;9.45;3.65;;;11.90;99.90;;;;;;4956867;28;20480;-73
2022/11/05 11:48:05;;;;;;;7.90;3.65;;;12.00;99.90;;;;;;4951566;28;20154;-74
2022/11/05 11:50:37;;;;;;;9.20;3.70;;;12.00;99.90;;;;;;4966012;28;20102;-74
2022/11/05 11:53:29;;;;;;;8.85;3.53;;;12.00;99.90;;;;;;4957523;28;20066;-73
2022/11/05 11:56:02;;;;;;;10.07;3.97;;;12.00;99.90;;;;;;4952139;28;20058;-72
2022/11/05 11:58:40;;;;;;;7.80;3.60;;;12.10;99.90;;;;;;4968975;28;20054;-72
2022/11/05 12:01:38;;;;;;;9.45;3.70;;;12.10;99.90;;;;;;4958323;28;20064;-73
2022/11/05 12:04:39;;;;;;;8.98;3.40;;;12.40;99.90;;;;;;4967009;28;20081;-72
2022/11/05 12:07:23;;;;;;;8.18;4.00;;;12.00;99.90;;;;;;4951802;28;20048;-72
2022/11/05 12:10:14;;;;;;;8.25;3.83;;;11.90;99.90;;;;;;4958102;28;20043;-73
2022/11/05 12:12:55;;;;;;;6.78;3.78;;;11.90;99.90;;;;;;4956870;28;20087;-73
2022/11/05 12:15:32;;;;;;;7.53;3.75;;;11.80;99.90;;;;;;4964955;28;20058;-73
2022/11/05 12:18:07;;;;;;;10.18;4.00;;;11.80;99.90;;;;;;4950992;28;20137;-73
2022/11/05 12:20:57;;;;;;;8.50;4.10;;;11.80;99.90;;;;;;4957274;28;20057;-72
2022/11/05 12:23:49;;;;;;;9.18;4.00;;;11.80;99.90;;;;;;4957053;28;20047;-73
2022/11/05 12:26:46;;;;;;;9.73;4.20;;;11.70;99.90;;;;;;4958410;28;20058;-73
2022/11/05 12:29:50;;;;;;;9.88;4.45;;;11.70;99.90;;;;;;4966310;28;20301;-73
2022/11/05 12:32:57;;;;;;;14.10;5.00;;;11.80;99.90;;;;;;4953300;28;20503;-72
2022/11/05 12:36:01;;;;;;;13.75;4.68;;;11.80;99.90;;;;;;4972686;28;20158;-73
2022/11/05 12:38:36;;;;;;;9.88;4.68;;;11.90;99.90;;;;;;4954910;28;20063;-73
2022/11/05 12:41:22;;;;;;;11.30;4.80;;;11.90;99.90;;;;;;4973376;28;20505;-73
2022/11/05 12:43:56;;;;;;;11.02;4.78;;;11.90;99.90;;;;;;4957067;28;20114;-72
2022/11/05 12:46:35;;;;;;;11.65;5.22;;;11.90;99.90;;;;;;4974658;28;20054;-73
2022/11/05 12:49:04;;;;;;;11.57;5.13;;;11.80;99.90;;;;;;4956337;28;20055;-72
2022/11/05 12:51:48;;;;;;;8.52;4.70;;;11.80;99.90;;;;;;4956033;28;20047;-73
2022/11/05 12:54:26;;;;;;;9.65;4.30;;;11.80;99.90;;;;;;4957754;28;20046;-73
2022/11/05 12:56:56;;;;;;;9.05;4.60;;;11.70;99.90;;;;;;4963012;28;20077;-73
2022/11/05 12:59:35;;;;;;;10.40;4.80;;;11.70;99.90;;;;;;4959462;28;20474;-73
2022/11/05 13:02:03;;;;;;;9.18;4.40;;;11.70;99.90;;;;;;4954959;28;20055;-72
2022/11/05 13:04:40;;;;;;;9.77;4.55;;;11.60;99.90;;;;;;4958487;28;20039;-72
2022/11/05 13:07:10;;;;;;;9.48;4.50;;;11.60;99.90;;;;;;4970199;28;20054;-72
2022/11/05 13:09:48;;;;;;;9.30;4.68;;;11.60;99.90;;;;;;4955288;28;20039;-72
2022/11/05 13:12:19;;;;;;;9.57;4.30;;;11.60;99.90;;;;;;4968466;28;20062;-72
2022/11/05 13:14:53;;;;;;;8.82;4.22;;;11.60;99.90;;;;;;4966201;28;20182;-73
2022/11/05 13:17:25;;;;;;;10.20;4.22;;;11.60;99.90;;;;;;4953863;28;20051;-73
2022/11/05 13:19:55;;;;;;;10.38;3.83;;;11.70;99.90;;;;;;4965096;28;20056;-72
2022/11/05 13:22:42;;;;;;;9.73;4.13;;;11.70;99.90;;;;;;4967397;28;20458;-72
2022/11/05 13:25:24;;;;;;;8.45;4.20;;;11.70;99.90;;;;;;4970318;28;20061;-73
2022/11/05 13:28:30;;;;;;;9.38;3.75;;;11.70;99.90;;;;;;4966931;28;20071;-73
2022/11/05 13:31:00;;;;;;;10.55;4.13;;;11.70;99.90;;;;;;4968127;28;20053;-72
2022/11/05 13:33:31;;;;;;;10.30;4.68;;;11.70;99.90;;;;;;4973249;28;20055;-72
2022/11/05 13:39:23;;;;;;;10.07;4.85;;;11.70;99.90;;;;;;4957881;28;20479;-72
2022/11/05 13:42:04;;;;;;;9.93;4.32;;;11.70;99.90;;;;;;4973382;28;20133;-73
2022/11/05 13:45:00;;;;;;;10.55;4.80;;;11.60;99.90;;;;;;4960603;28;20061;-73
2022/11/05 13:47:38;;;;;;;9.05;4.50;;;11.70;99.90;;;;;;4959077;28;20129;-73
2022/11/05 13:50:26;;;;;;;11.38;4.78;;;11.60;99.90;;;;;;4954657;28;20055;-73
2022/11/05 13:52:57;;;;;;;11.32;4.63;;;11.60;99.90;;;;;;4955837;28;20051;-72
2022/11/05 13:55:51;;;;;;;11.00;4.75;;;11.60;99.90;;;;;;4970324;28;20051;-72